Time;durP1;ratioP1;P1;durP2;ratioP2;P2;SDS_P1;SDS_P2;PMS_P1;PMS_P2;Temp;Humidity;BMP_temperature;BMP_pressure;BME280_temperature;BME280_humidity;BME280_pressure;Samples;Min_cycle;Max_cycle;Signal;HPM_P1;HPM_P2
2021/03/02 00:01:08;;;;;;;;;;;;;;;20.69;33.71;102484.41;5116345;28;770;-46
2021/03/02 00:03:33;;;;;;;;;;;;;;;20.16;34.64;102493.16;5116750;28;1067;-45
2021/03/02 00:06:02;;;;;;;;;;;;;;;20.02;35.20;102488.25;5116659;28;830;-45
2021/03/02 00:08:28;;;;;;;;;;;;;;;19.47;36.22;102493.50;5116797;28;747;-44
2021/03/02 00:10:54;;;;;;;;;;;;;;;19.56;36.04;102513.22;5116971;28;775;-45
2021/03/02 00:13:20;;;;;;;;;;;;;;;20.45;34.34;102509.53;5115517;28;807;-45
2021/03/02 00:15:46;;;;;;;;;;;;;;;20.32;34.62;102508.00;5114988;28;1982;-51
2021/03/02 00:18:12;;;;;;;;;;;;;;;20.20;34.64;102511.97;5116199;28;1593;-46
2021/03/02 00:20:37;;;;;;;;;;;;;;;19.89;35.25;102517.91;5116496;28;751;-45
2021/03/02 00:23:05;;;;;;;;;;;;;;;19.14;36.70;102517.25;5114705;28;1293;-45
2021/03/02 00:25:32;;;;;;;;;;;;;;;19.87;35.42;102516.53;5116671;28;770;-45
2021/03/02 00:27:59;;;;;;;;;;;;;;;20.61;33.84;102513.31;5116658;28;845;-46
2021/03/02 00:30:24;;;;;;;;;;;;;;;20.12;34.93;102518.81;5115138;28;846;-48
2021/03/02 00:32:50;;;;;;;;;;;;;;;20.04;34.97;102520.06;5115085;28;1008;-60
2021/03/02 00:35:15;;;;;;;;;;;;;;;19.27;36.66;102510.56;5118031;28;1914;-45
2021/03/02 00:37:41;;;;;;;;;;;;;;;19.56;36.01;102507.72;5120153;28;767;-45
2021/03/02 00:40:07;;;;;;;;;;;;;;;20.45;34.47;102509.53;5120538;28;814;-45
2021/03/02 00:42:32;;;;;;;;;;;;;;;20.10;34.78;102501.63;5119104;28;854;-45
2021/03/02 00:44:58;;;;;;;;;;;;;;;20.01;35.09;102504.00;5118845;28;1261;-45
2021/03/02 00:47:23;;;;;;;;;;;;;;;19.65;35.67;102501.50;5120135;28;802;-44
2021/03/02 00:49:49;;;;;;;;;;;;;;;19.23;36.70;102507.47;5137486;27;1080;-46
2021/03/02 00:52:15;;;;;;;;;;;;;;;20.17;34.98;102497.59;5140779;27;829;-44
2021/03/02 00:54:40;;;;;;;;;;;;;;;20.31;34.40;102497.22;5140995;27;752;-44
2021/03/02 00:57:06;;;;;;;;;;;;;;;20.10;34.88;102496.94;5140827;27;1902;-44
2021/03/02 00:59:32;;;;;;;;;;;;;;;19.79;35.33;102499.28;5140284;27;794;-44
2021/03/02 01:01:57;;;;;;;;;;;;;;;19.23;36.55;102490.09;5140798;27;821;-44
2021/03/02 01:04:25;;;;;;;;;;;;;;;19.82;35.49;102479.47;5139439;27;1227;-44
2021/03/02 01:06:51;;;;;;;;;;;;;;;20.47;34.30;102474.19;5140159;27;786;-44
2021/03/02 01:09:16;;;;;;;;;;;;;;;20.18;34.64;102468.06;5140540;27;770;-44
2021/03/02 01:11:47;;;;;;;;;;;;;;;20.00;34.94;102469.19;5139584;27;1151;-45
2021/03/02 01:14:13;;;;;;;;;;;;;;;19.22;36.57;102475.44;5139215;27;1101;-46
2021/03/02 01:16:38;;;;;;;;;;;;;;;19.40;36.48;102471.59;5136857;27;1970;-46
2021/03/02 01:19:04;;;;;;;;;;;;;;;20.32;34.55;102474.84;5130559;27;1012;-47
2021/03/02 01:21:29;;;;;;;;;;;;;;;20.13;34.79;102479.88;5140377;27;798;-46
2021/03/02 01:23:55;;;;;;;;;;;;;;;19.96;35.23;102479.09;5140152;27;762;-44
2021/03/02 01:26:20;;;;;;;;;;;;;;;19.60;35.74;102484.91;5140156;27;778;-44
2021/03/02 01:28:45;;;;;;;;;;;;;;;19.44;36.27;102481.06;5140091;27;778;-44
2021/03/02 01:31:11;;;;;;;;;;;;;;;20.40;34.41;102490.16;5140033;27;794;-45
2021/03/02 01:33:36;;;;;;;;;;;;;;;20.12;34.71;102483.72;5139880;27;941;-44
2021/03/02 01:36:02;;;;;;;;;;;;;;;20.08;34.81;102487.25;5139538;27;1972;-45
2021/03/02 01:38:30;;;;;;;;;;;;;;;19.70;35.50;102494.41;5139797;27;750;-45
2021/03/02 01:40:56;;;;;;;;;;;;;;;19.13;36.55;102494.34;5139994;27;869;-46
2021/03/02 01:43:21;;;;;;;;;;;;;;;20.19;34.66;102489.06;5134415;27;1101;-45
2021/03/02 01:45:47;;;;;;;;;;;;;;;20.63;34.00;102493.72;5118872;28;786;-45
2021/03/02 01:48:12;;;;;;;;;;;;;;;20.03;34.81;102490.78;5118487;28;1155;-45
2021/03/02 01:50:38;;;;;;;;;;;;;;;19.97;34.85;102503.66;5118517;28;1034;-45
2021/03/02 01:53:03;;;;;;;;;;;;;;;19.45;36.05;102492.94;5119098;28;834;-46
2021/03/02 01:55:29;;;;;;;;;;;;;;;19.26;36.47;102497.84;5119024;28;1970;-46
2021/03/02 01:57:54;;;;;;;;;;;;;;;20.20;34.74;102484.38;5117415;28;1121;-45
2021/03/02 02:00:23;;;;;;;;;;;;;;;20.21;34.63;102491.56;5119027;27;771;-48
2021/03/02 02:03:04;;;;;;;;;;;;;;;20.00;34.81;102489.34;5118536;28;977;-49
2021/03/02 02:05:31;;;;;;;;;;;;;;;19.67;35.68;102493.84;5117619;28;826;-49
2021/03/02 02:07:57;;;;;;;;;;;;;;;19.26;36.55;102493.16;5117537;28;818;-46
2021/03/02 02:10:48;;;;;;;;;;;;;;;20.21;34.67;102486.03;5117602;28;672;-45
2021/03/02 02:13:22;;;;;;;;;;;;;;;20.30;34.24;102490.00;5115312;28;1096;-54
2021/03/02 02:15:48;;;;;;;;;;;;;;;20.11;34.75;102486.75;5117545;28;1971;-47
2021/03/02 02:18:14;;;;;;;;;;;;;;;19.64;35.54;102499.88;5116585;28;1624;-44
2021/03/02 02:21:02;;;;;;;;;;;;;;;19.14;36.68;102509.81;5116998;28;803;-44
2021/03/02 02:23:51;;;;;;;;;;;;;;;20.27;34.64;102501.56;5117368;28;799;-45
2021/03/02 02:26:35;;;;;;;;;;;;;;;20.18;34.56;102504.78;5116982;28;719;-46
2021/03/02 02:29:01;;;;;;;;;;;;;;;20.09;35.02;102509.09;5118358;28;855;-45
2021/03/02 02:31:27;;;;;;;;;;;;;;;19.62;35.69;102509.47;5118260;28;747;-45
2021/03/02 02:33:52;;;;;;;;;;;;;;;19.23;36.58;102509.41;5117914;28;958;-66
2021/03/02 02:36:18;;;;;;;;;;;;;;;20.11;34.78;102512.41;5116585;28;1942;-48
2021/03/02 02:38:56;;;;;;;;;;;;;;;20.72;33.74;102519.84;5118120;28;890;-46
2021/03/02 02:41:21;;;;;;;;;;;;;;;21.08;33.00;102522.13;5118100;28;822;-46
2021/03/02 02:43:47;;;;;;;;;;;;;;;20.54;33.86;102521.00;5116569;28;1111;-47
2021/03/02 02:46:12;;;;;;;;;;;;;;;20.34;34.18;102529.84;5116609;28;802;-47
2021/03/02 02:48:38;;;;;;;;;;;;;;;19.58;35.75;102527.63;5124103;27;1030;-45
2021/03/02 02:51:03;;;;;;;;;;;;;;;19.12;36.67;102527.66;5138129;27;1128;-45
2021/03/02 02:53:29;;;;;;;;;;;;;;;19.95;35.10;102521.56;5138299;27;793;-47
2021/03/02 02:56:02;;;;;;;;;;;;;;;20.48;33.95;102524.75;5137066;27;1905;-47
2021/03/02 02:58:37;;;;;;;;;;;;;;;20.06;34.73;102523.38;5137216;27;814;-45
2021/03/02 03:01:03;;;;;;;;;;;;;;;19.90;35.02;102524.28;5138173;27;810;-46
2021/03/02 03:03:28;;;;;;;;;;;;;;;19.30;36.22;102526.63;5136796;27;992;-47
2021/03/02 03:05:55;;;;;;;;;;;;;;;19.48;36.08;102529.13;5136530;27;782;-45
2021/03/02 03:08:21;;;;;;;;;;;;;;;20.43;34.32;102521.97;5136542;27;866;-45
2021/03/02 03:10:47;;;;;;;;;;;;;;;20.10;34.72;102516.28;5138195;27;770;-46
2021/03/02 03:13:13;;;;;;;;;;;;;;;20.00;34.91;102524.41;5136526;27;802;-48
2021/03/02 03:15:39;;;;;;;;;;;;;;;19.67;35.59;102521.44;5119602;27;1909;-45
2021/03/02 03:18:06;;;;;;;;;;;;;;;19.18;36.68;102528.59;5125080;27;1663;-45
2021/03/02 03:20:31;;;;;;;;;;;;;;;19.19;36.41;102535.78;5137548;27;858;-46
2021/03/02 03:22:57;;;;;;;;;;;;;;;20.18;34.68;102526.88;5137938;27;821;-45
2021/03/02 03:25:22;;;;;;;;;;;;;;;20.25;34.25;102528.63;5136655;27;1297;-46
2021/03/02 03:27:55;;;;;;;;;;;;;;;19.92;35.04;102533.13;5136060;27;735;-63
2021/03/02 03:30:21;;;;;;;;;;;;;;;19.70;35.34;102535.81;5136612;27;862;-64
2021/03/02 03:32:47;;;;;;;;;;;;;;;19.14;36.42;102531.88;5136483;27;989;-62
2021/03/02 03:35:13;;;;;;;;;;;;;;;19.90;35.16;102529.81;5137172;27;1910;-45
2021/03/02 03:37:38;;;;;;;;;;;;;;;20.35;34.14;102537.03;5137847;27;806;-67
2021/03/02 03:40:04;;;;;;;;;;;;;;;20.03;34.84;102531.38;5137571;27;909;-67
2021/03/02 03:42:29;;;;;;;;;;;;;;;19.83;35.08;102522.53;5137159;27;766;-65
2021/03/02 03:44:54;;;;;;;;;;;;;;;19.29;36.08;102530.44;5119579;27;1102;-52
2021/03/02 03:47:20;;;;;;;;;;;;;;;19.90;35.36;102530.63;5116864;28;736;-46
2021/03/02 03:49:45;;;;;;;;;;;;;;;20.43;34.02;102528.31;5115999;28;1190;-46
2021/03/02 03:52:11;;;;;;;;;;;;;;;20.02;34.83;102533.31;5116930;28;830;-62
2021/03/02 03:54:37;;;;;;;;;;;;;;;20.07;34.61;102522.31;5115494;28;778;-69
2021/03/02 03:57:02;;;;;;;;;;;;;;;19.41;35.85;102528.47;5116660;28;1921;-57
2021/03/02 03:59:27;;;;;;;;;;;;;;;19.48;36.12;102529.13;5116299;28;813;-49
2021/03/02 04:01:54;;;;;;;;;;;;;;;20.33;34.32;102523.50;5114998;28;879;-65
2021/03/02 04:04:19;;;;;;;;;;;;;;;20.07;34.63;102519.53;5116299;28;958;-45
2021/03/02 04:06:45;;;;;;;;;;;;;;;19.93;34.89;102521.84;5116590;28;794;-48
2021/03/02 04:09:10;;;;;;;;;;;;;;;19.58;35.80;102528.44;5115058;28;779;-65
2021/03/02 04:11:36;;;;;;;;;;;;;;;19.52;35.83;102528.63;5116621;28;759;-65
2021/03/02 04:14:01;;;;;;;;;;;;;;;20.46;33.92;102522.25;5117201;28;802;-48
2021/03/02 04:16:26;;;;;;;;;;;;;;;20.01;34.97;102515.06;5116437;28;1914;-49
2021/03/02 04:18:52;;;;;;;;;;;;;;;19.96;34.83;102513.06;5114589;28;1036;-50
2021/03/02 04:21:18;;;;;;;;;;;;;;;19.53;35.73;102509.06;5115538;28;804;-48
2021/03/02 04:23:43;;;;;;;;;;;;;;;19.32;36.19;102518.91;5116590;28;758;-50
2021/03/02 04:26:09;;;;;;;;;;;;;;;20.35;34.15;102514.94;5116468;28;763;-43
2021/03/02 04:28:34;;;;;;;;;;;;;;;20.17;34.63;102511.41;5117134;28;825;-45
2021/03/02 04:30:59;;;;;;;;;;;;;;;20.09;34.58;102503.56;5116742;28;755;-45
2021/03/02 04:33:25;;;;;;;;;;;;;;;19.71;35.24;102509.88;5116063;28;957;-51
2021/03/02 04:35:50;;;;;;;;;;;;;;;19.07;36.53;102511.88;5116588;28;1982;-55
2021/03/02 04:38:16;;;;;;;;;;;;;;;19.93;34.94;102519.06;5116494;28;874;-53
2021/03/02 04:40:41;;;;;;;;;;;;;;;20.29;34.13;102504.94;5116735;28;766;-50
2021/03/02 04:43:07;;;;;;;;;;;;;;;19.99;34.88;102511.69;5116916;28;1110;-51
2021/03/02 04:45:32;;;;;;;;;;;;;;;19.88;34.89;102513.50;5116713;28;809;-49
2021/03/02 04:47:58;;;;;;;;;;;;;;;19.26;36.30;102519.91;5117817;28;1016;-47
2021/03/02 04:50:24;;;;;;;;;;;;;;;19.75;35.32;102516.56;5137149;28;1141;-46
2021/03/02 04:52:50;;;;;;;;;;;;;;;20.48;34.10;102519.22;5137219;28;843;-46
2021/03/02 04:55:15;;;;;;;;;;;;;;;20.09;34.49;102520.13;5127074;28;1972;-51
2021/03/02 04:57:41;;;;;;;;;;;;;;;20.06;34.67;102515.09;5117583;28;754;-44
2021/03/02 05:00:07;;;;;;;;;;;;;;;19.44;36.03;102516.09;5137129;28;818;-52
2021/03/02 05:02:32;;;;;;;;;;;;;;;19.61;35.63;102510.56;5136788;28;858;-50
2021/03/02 05:04:58;;;;;;;;;;;;;;;20.39;34.12;102523.56;5117643;28;996;-49
2021/03/02 05:07:23;;;;;;;;;;;;;;;20.17;34.42;102525.22;5116496;28;763;-58
2021/03/02 05:09:49;;;;;;;;;;;;;;;20.11;34.14;102529.00;5116302;28;818;-49
2021/03/02 05:12:14;;;;;;;;;;;;;;;19.70;34.84;102522.00;5116426;28;823;-44
2021/03/02 05:14:39;;;;;;;;;;;;;;;19.37;35.66;102516.25;5116790;28;811;-44
2021/03/02 05:17:05;;;;;;;;;;;;;;;20.26;33.87;102516.47;5116161;28;1976;-46
2021/03/02 05:19:31;;;;;;;;;;;;;;;19.98;34.38;102519.16;5114946;28;1009;-44
2021/03/02 05:21:56;;;;;;;;;;;;;;;19.97;34.34;102533.22;5117662;28;770;-54
2021/03/02 05:24:21;;;;;;;;;;;;;;;19.63;34.87;102533.25;5119724;28;794;-43
2021/03/02 05:26:47;;;;;;;;;;;;;;;19.34;35.83;102538.81;5119923;28;814;-45
2021/03/02 05:29:12;;;;;;;;;;;;;;;20.32;33.89;102543.09;5120236;28;774;-49
2021/03/02 05:31:38;;;;;;;;;;;;;;;20.37;33.56;102548.69;5119632;28;826;-44
2021/03/02 05:34:03;;;;;;;;;;;;;;;20.10;34.11;102552.16;5119060;28;954;-48
2021/03/02 05:36:29;;;;;;;;;;;;;;;19.88;34.74;102554.06;5119933;28;1913;-67
2021/03/02 05:38:54;;;;;;;;;;;;;;;19.28;35.90;102550.88;5119494;27;751;-48
2021/03/02 05:41:20;;;;;;;;;;;;;;;20.31;33.87;102546.94;5119402;28;739;-43
2021/03/02 05:43:45;;;;;;;;;;;;;;;20.47;33.53;102551.56;5119200;28;1107;-44
2021/03/02 05:46:11;;;;;;;;;;;;;;;20.24;33.92;102549.88;5119321;28;763;-48
2021/03/02 05:48:38;;;;;;;;;;;;;;;19.99;34.44;102550.34;5126446;27;882;-45
2021/03/02 05:51:04;;;;;;;;;;;;;;;19.46;35.45;102553.38;5138731;27;1197;-47
2021/03/02 05:53:29;;;;;;;;;;;;;;;19.46;35.49;102560.81;5140002;27;830;-46
2021/03/02 05:55:55;;;;;;;;;;;;;;;20.43;33.72;102546.81;5139650;27;1913;-60
2021/03/02 05:58:21;;;;;;;;;;;;;;;20.11;34.25;102553.84;5140266;27;782;-46
2021/03/02 06:00:46;;;;;;;;;;;;;;;19.96;34.67;102550.88;5138494;27;861;-46
2021/03/02 06:03:12;;;;;;;;;;;;;;;19.62;35.31;102556.41;5139317;27;949;-45
2021/03/02 06:05:37;;;;;;;;;;;;;;;19.10;36.10;102555.50;5139703;27;790;-48
2021/03/02 06:08:03;;;;;;;;;;;;;;;20.04;34.41;102558.72;5139457;27;830;-45
2021/03/02 06:10:29;;;;;;;;;;;;;;;20.20;33.99;102556.19;5139475;27;778;-44
2021/03/02 06:12:55;;;;;;;;;;;;;;;19.96;34.65;102557.25;5139999;27;822;-47
2021/03/02 06:15:21;;;;;;;;;;;;;;;19.78;34.74;102560.22;5132413;27;1901;-46
2021/03/02 06:17:47;;;;;;;;;;;;;;;19.09;36.10;102559.34;5118442;27;1667;-49
2021/03/02 06:20:19;;;;;;;;;;;;;;;20.08;34.38;102559.88;5139015;27;1004;-45
2021/03/02 06:22:44;;;;;;;;;;;;;;;20.30;33.97;102561.81;5139645;27;791;-46
2021/03/02 06:25:37;;;;;;;;;;;;;;;19.94;34.67;102553.06;5139101;27;739;-47
2021/03/02 06:28:02;;;;;;;;;;;;;;;19.66;35.10;102568.59;5136356;27;1268;-46
2021/03/02 06:30:28;;;;;;;;;;;;;;;19.19;36.19;102563.38;5138073;27;862;-45
2021/03/02 06:32:53;;;;;;;;;;;;;;;19.99;34.77;102561.41;5138696;27;937;-45
2021/03/02 06:35:31;;;;;;;;;;;;;;;20.48;33.47;102557.91;5138871;27;1906;-48
2021/03/02 06:37:56;;;;;;;;;;;;;;;20.11;34.37;102564.06;5139187;27;833;-45
2021/03/02 06:40:41;;;;;;;;;;;;;;;19.93;34.59;102562.44;5139010;27;786;-45
2021/03/02 06:43:06;;;;;;;;;;;;;;;19.18;36.21;102558.94;5136292;27;1144;-45
2021/03/02 06:45:32;;;;;;;;;;;;;;;19.89;34.75;102555.72;5118298;28;771;-46
2021/03/02 06:48:01;;;;;;;;;;;;;;;20.55;33.37;102554.97;5117600;28;981;-46
2021/03/02 06:50:26;;;;;;;;;;;;;;;19.98;34.58;102554.22;5118090;28;995;-55
2021/03/02 06:52:52;;;;;;;;;;;;;;;19.98;34.43;102555.06;5118235;28;844;-44
2021/03/02 06:55:27;;;;;;;;;;;;;;;19.25;35.83;102562.38;5117716;28;1902;-47
2021/03/02 06:57:53;;;;;;;;;;;;;;;20.06;34.43;102552.94;5117983;28;766;-44
2021/03/02 07:00:31;;;;;;;;;;;;;;;20.67;33.30;102555.69;5117006;28;845;-45
2021/03/02 07:02:57;;;;;;;;;;;;;;;20.12;34.32;102555.53;5117175;28;1009;-44
2021/03/02 07:05:22;;;;;;;;;;;;;;;20.08;34.34;102559.88;5116396;28;984;-44
2021/03/02 07:07:54;;;;;;;;;;;;;;;19.63;35.08;102569.13;5118136;28;814;-44
2021/03/02 07:10:20;;;;;;;;;;;;;;;19.29;36.22;102569.06;5117423;28;963;-46
2021/03/02 07:12:45;;;;;;;;;;;;;;;20.24;34.23;102558.16;5117955;28;838;-51
2021/03/02 07:15:12;;;;;;;;;;;;;;;20.34;33.82;102558.31;5117787;28;1914;-47
2021/03/02 07:17:38;;;;;;;;;;;;;;;20.04;34.36;102561.47;5117701;28;1585;-48
2021/03/02 07:20:04;;;;;;;;;;;;;;;19.86;35.00;102553.50;5117365;28;945;-46
2021/03/02 07:22:31;;;;;;;;;;;;;;;19.31;36.12;102551.19;5117740;28;804;-44
2021/03/02 07:24:57;;;;;;;;;;;;;;;20.17;34.15;102566.66;5115933;28;763;-43
2021/03/02 07:27:22;;;;;;;;;;;;;;;20.22;34.01;102549.31;5117407;28;842;-45
2021/03/02 07:29:49;;;;;;;;;;;;;;;20.02;34.41;102560.06;5116269;28;870;-44
2021/03/02 07:32:14;;;;;;;;;;;;;;;19.87;34.88;102549.66;5115470;28;864;-47
2021/03/02 07:34:42;;;;;;;;;;;;;;;19.33;35.80;102542.66;5117040;28;966;-44
2021/03/02 07:37:08;;;;;;;;;;;;;;;20.09;34.29;102550.53;5115968;28;1906;-68
2021/03/02 07:39:33;;;;;;;;;;;;;;;20.61;33.55;102540.16;5117390;28;880;-45
2021/03/02 07:41:59;;;;;;;;;;;;;;;20.24;34.17;102543.53;5117434;28;759;-45
2021/03/02 07:44:25;;;;;;;;;;;;;;;20.01;34.51;102534.38;5116455;28;1189;-44
2021/03/02 07:46:55;;;;;;;;;;;;;;;19.49;35.14;102535.50;5116949;28;727;-67
2021/03/02 07:49:24;;;;;;;;;;;;;;;19.56;35.23;102536.16;5130305;27;1185;-46
2021/03/02 07:52:02;;;;;;;;;;;;;;;20.43;33.52;102539.34;5137600;27;774;-46
2021/03/02 07:54:27;;;;;;;;;;;;;;;20.06;34.22;102536.38;5137539;27;746;-46
2021/03/02 07:57:25;;;;;;;;;;;;;;;19.99;34.52;102533.78;5137579;27;1909;-45
2021/03/02 08:00:09;;;;;;;;;;;;;;;19.53;35.15;102539.44;5103252;27;1509;-44
2021/03/02 08:02:35;;;;;;;;;;;;;;;19.68;35.03;102541.56;5137736;27;771;-46
2021/03/02 08:05:20;;;;;;;;;;;;;;;20.51;33.58;102533.38;5137435;27;1011;-43
2021/03/02 08:07:46;;;;;;;;;;;;;;;20.08;34.34;102525.91;5137033;28;1136;-48
2021/03/02 08:10:33;;;;;;;;;;;;;;;20.13;34.12;102526.81;5136083;28;884;-48
2021/03/02 08:12:58;;;;;;;;;;;;;;;19.49;35.23;102530.81;5137432;28;782;-45
2021/03/02 08:15:37;;;;;;;;;;;;;;;19.90;34.48;102529.81;5135800;28;1974;-43
2021/03/02 08:18:21;;;;;;;;;;;;;;;20.62;33.50;102536.25;5124423;28;1603;-44
2021/03/02 08:21:06;;;;;;;;;;;;;;;20.13;33.97;102535.13;5137427;28;806;-44
2021/03/02 08:23:50;;;;;;;;;;;;;;;19.92;34.60;102533.13;5137069;28;854;-45
2021/03/02 08:26:19;;;;;;;;;;;;;;;19.32;35.78;102529.94;5137365;27;782;-44
2021/03/02 08:29:01;;;;;;;;;;;;;;;19.86;34.68;102528.63;5137351;28;770;-46
2021/03/02 08:31:26;;;;;;;;;;;;;;;20.61;33.39;102529.91;5137372;28;812;-47
2021/03/02 08:33:52;;;;;;;;;;;;;;;20.12;33.89;102525.16;5135316;28;1008;-46
2021/03/02 08:36:17;;;;;;;;;;;;;;;20.25;33.80;102526.69;5136051;28;1909;-44
2021/03/02 08:38:43;;;;;;;;;;;;;;;19.68;34.85;102533.28;5135822;28;810;-55
2021/03/02 08:41:08;;;;;;;;;;;;;;;19.74;34.86;102526.78;5137416;27;843;-59
2021/03/02 08:43:34;;;;;;;;;;;;;;;20.51;33.32;102524.28;5130707;28;1149;-49
2021/03/02 08:46:01;;;;;;;;;;;;;;;20.16;33.87;102522.69;5116565;28;965;-45
2021/03/02 08:48:30;;;;;;;;;;;;;;;20.20;33.83;102511.97;5116587;28;993;-47
2021/03/02 08:50:56;;;;;;;;;;;;;;;19.72;35.01;102519.84;5115068;28;1045;-47
2021/03/02 08:53:41;;;;;;;;;;;;;;;19.23;35.83;102520.44;5116282;28;806;-47
2021/03/02 08:56:08;;;;;;;;;;;;;;;20.25;34.01;102523.09;5117885;28;1980;-50
2021/03/02 08:58:37;;;;;;;;;;;;;;;20.83;32.81;102524.38;5120599;28;823;-46
2021/03/02 09:01:09;;;;;;;;;;;;;;;21.18;32.32;102525.84;5119997;28;787;-47
2021/03/02 09:03:37;;;;;;;;;;;;;;;20.59;33.28;102531.25;5114561;28;1089;-46
2021/03/02 09:06:12;;;;;;;;;;;;;;;20.41;33.38;102516.69;5099942;28;763;-45
2021/03/02 09:08:44;;;;;;;;;;;;;;;19.70;34.92;102530.28;5099187;28;751;-48
2021/03/02 09:11:09;;;;;;;;;;;;;;;19.13;36.10;102527.41;5099795;28;790;-49
2021/03/02 09:13:35;;;;;;;;;;;;;;;20.11;34.50;102525.41;5099784;28;886;-47
2021/03/02 09:16:01;;;;;;;;;;;;;;;20.43;33.60;102521.97;5099147;28;1934;-63
2021/03/02 09:18:26;;;;;;;;;;;;;;;20.22;34.10;102523.63;5123466;27;1660;-45
2021/03/02 09:20:54;;;;;;;;;;;;;;;20.18;33.79;102524.13;5140649;27;743;-47
2021/03/02 09:23:19;;;;;;;;;;;;;;;19.39;35.65;102525.13;5139307;27;803;-46
2021/03/02 09:25:45;;;;;;;;;;;;;;;19.48;35.37;102525.53;5140529;27;870;-61
2021/03/02 09:28:16;;;;;;;;;;;;;;;20.41;33.63;102524.13;5140472;27;873;-48
2021/03/02 09:30:42;;;;;;;;;;;;;;;20.15;34.01;102523.81;5140049;27;790;-54
2021/03/02 09:33:08;;;;;;;;;;;;;;;20.17;34.11;102521.59;5140031;27;933;-63
2021/03/02 09:35:33;;;;;;;;;;;;;;;19.66;34.92;102524.44;5138837;27;1971;-62
2021/03/02 09:37:59;;;;;;;;;;;;;;;19.21;35.94;102523.44;5140053;27;861;-44
2021/03/02 09:40:24;;;;;;;;;;;;;;;19.67;35.00;102520.59;5139512;27;786;-48
2021/03/02 09:42:54;;;;;;;;;;;;;;;20.47;33.73;102528.66;5139695;27;1109;-58
2021/03/02 09:45:19;;;;;;;;;;;;;;;20.17;33.89;102518.84;5119283;28;822;-45
2021/03/02 09:47:46;;;;;;;;;;;;;;;20.04;34.38;102516.47;5118078;28;860;-46
2021/03/02 09:50:13;;;;;;;;;;;;;;;19.66;34.91;102516.16;5119010;28;1161;-45
2021/03/02 09:52:39;;;;;;;;;;;;;;;19.33;35.54;102520.59;5119224;28;845;-44
2021/03/02 09:55:15;;;;;;;;;;;;;;;19.89;34.66;102508.81;5119475;28;791;-44
2021/03/02 09:57:46;;;;;;;;;;;;;;;20.41;33.47;102516.69;5119523;28;1909;-45
2021/03/02 10:00:12;;;;;;;;;;;;;;;20.14;34.19;102502.78;5119022;28;762;-46
2021/03/02 10:02:50;;;;;;;;;;;;;;;19.93;34.30;102510.78;5119239;28;601;-69
2021/03/02 10:05:27;;;;;;;;;;;;;;;19.23;35.92;102503.88;5118948;28;759;-58
2021/03/02 10:07:53;;;;;;;;;;;;;;;20.13;34.01;102501.97;5118218;28;826;-44
2021/03/02 10:10:32;;;;;;;;;;;;;;;20.38;33.82;102508.06;5119030;28;838;-45
2021/03/02 10:12:58;;;;;;;;;;;;;;;20.10;34.05;102502.47;5117912;28;774;-63
2021/03/02 10:15:24;;;;;;;;;;;;;;;19.82;34.61;102495.16;5118618;28;1909;-45
2021/03/02 10:17:49;;;;;;;;;;;;;;;19.26;35.84;102497.84;5118486;28;1676;-45
2021/03/02 10:20:15;;;;;;;;;;;;;;;19.66;35.25;102494.91;5118954;28;755;-45
2021/03/02 10:22:40;;;;;;;;;;;;;;;20.44;33.48;102485.78;5118584;28;794;-47
2021/03/02 10:25:06;;;;;;;;;;;;;;;20.03;34.15;102478.91;5118804;28;850;-54
2021/03/02 10:27:32;;;;;;;;;;;;;;;20.16;34.09;102478.50;5118626;28;766;-48
2021/03/02 10:29:59;;;;;;;;;;;;;;;19.55;35.26;102478.47;5118847;28;871;-46
2021/03/02 10:32:25;;;;;;;;;;;;;;;19.53;35.20;102469.59;5118507;28;750;-47
2021/03/02 10:34:50;;;;;;;;;;;;;;;20.45;33.67;102470.03;5118270;28;1025;-53
2021/03/02 10:37:16;;;;;;;;;;;;;;;20.16;33.80;102468.31;5118158;28;1964;-55
2021/03/02 10:39:41;;;;;;;;;;;;;;;20.06;34.10;102470.09;5117095;28;1341;-50
2021/03/02 10:42:09;;;;;;;;;;;;;;;19.59;34.93;102472.19;5118600;28;807;-46
2021/03/02 10:44:34;;;;;;;;;;;;;;;19.16;36.02;102462.66;5118135;28;1094;-46
2021/03/02 10:47:00;;;;;;;;;;;;;;;20.18;34.00;102465.28;5118066;28;739;-45
2021/03/02 10:49:25;;;;;;;;;;;;;;;20.34;33.43;102460.78;5131987;27;1550;-43
2021/03/02 10:51:51;;;;;;;;;;;;;;;20.10;33.95;102458.28;5138611;27;822;-45
2021/03/02 10:54:16;;;;;;;;;;;;;;;19.87;34.37;102447.50;5138700;27;766;-46
2021/03/02 10:56:42;;;;;;;;;;;;;;;19.20;35.68;102460.25;5138667;27;1901;-46
2021/03/02 10:59:07;;;;;;;;;;;;;;;19.87;34.51;102441.97;5138672;27;810;-48
2021/03/02 11:01:33;;;;;;;;;;;;;;;20.52;33.22;102448.53;5138535;27;949;-45
2021/03/02 11:03:59;;;;;;;;;;;;;;;20.20;33.84;102445.69;5138259;27;972;-47
2021/03/02 11:06:25;;;;;;;;;;;;;;;20.17;34.02;102436.84;5138038;27;755;-45
2021/03/02 11:08:51;;;;;;;;;;;;;;;19.38;35.28;102435.16;5138503;27;767;-44
2021/03/02 11:11:17;;;;;;;;;;;;;;;19.71;34.89;102432.59;5138559;27;885;-46
2021/03/02 11:13:42;;;;;;;;;;;;;;;20.54;33.22;102435.31;5138715;27;802;-48
2021/03/02 11:16:08;;;;;;;;;;;;;;;20.17;33.66;102427.69;5138189;27;1972;-56
2021/03/02 11:18:34;;;;;;;;;;;;;;;20.09;34.13;102422.63;5125030;27;1671;-53
2021/03/02 11:20:59;;;;;;;;;;;;;;;19.49;35.11;102428.72;5137326;27;774;-48
2021/03/02 11:23:24;;;;;;;;;;;;;;;19.22;35.85;102420.28;5138236;27;734;-44
2021/03/02 11:25:50;;;;;;;;;;;;;;;20.22;33.87;102426.94;5138210;27;770;-46
2021/03/02 11:28:15;;;;;;;;;;;;;;;20.15;34.04;102421.63;5137768;27;755;-44
2021/03/02 11:30:41;;;;;;;;;;;;;;;20.04;34.09;102414.31;5138162;27;775;-44
2021/03/02 11:33:06;;;;;;;;;;;;;;;19.77;34.78;102410.34;5137993;27;933;-45
2021/03/02 11:35:32;;;;;;;;;;;;;;;19.09;36.00;102409.63;5135761;27;1984;-44
2021/03/02 11:37:58;;;;;;;;;;;;;;;20.08;34.19;102418.22;5138049;27;818;-46
2021/03/02 11:40:23;;;;;;;;;;;;;;;20.54;33.22;102406.81;5138102;27;802;-45
2021/03/02 11:42:52;;;;;;;;;;;;;;;20.11;34.04;102409.41;5137330;27;1109;-45
2021/03/02 11:45:18;;;;;;;;;;;;;;;19.98;34.24;102394.09;5117275;28;763;-45
2021/03/02 11:47:43;;;;;;;;;;;;;;;19.32;35.69;102397.56;5117408;28;842;-44
2021/03/02 11:50:09;;;;;;;;;;;;;;;19.75;34.82;102398.72;5116262;28;999;-46
2021/03/02 11:52:34;;;;;;;;;;;;;;;20.57;33.22;102396.09;5117327;28;763;-47
2021/03/02 11:55:00;;;;;;;;;;;;;;;20.14;33.84;102393.16;5117087;28;870;-51
2021/03/02 11:57:25;;;;;;;;;;;;;;;20.11;34.28;102387.31;5114805;28;1991;-47
2021/03/02 11:59:51;;;;;;;;;;;;;;;19.54;34.97;102389.31;5117287;28;794;-45
2021/03/02 12:02:16;;;;;;;;;;;;;;;19.32;35.68;102389.28;5117535;28;758;-45
2021/03/02 12:04:42;;;;;;;;;;;;;;;20.23;34.01;102379.72;5116361;28;996;-48
2021/03/02 12:07:08;;;;;;;;;;;;;;;20.26;33.76;102383.88;5117068;28;953;-47
2021/03/02 12:09:33;;;;;;;;;;;;;;;20.13;34.17;102387.88;5117098;28;771;-44
2021/03/02 12:11:59;;;;;;;;;;;;;;;19.73;34.77;102381.59;5116571;28;783;-44
2021/03/02 12:14:24;;;;;;;;;;;;;;;19.34;35.55;102373.31;5117322;28;809;-45
2021/03/02 12:16:50;;;;;;;;;;;;;;;20.33;33.77;102374.31;5116841;28;1913;-44
2021/03/02 12:19:15;;;;;;;;;;;;;;;20.36;33.41;102367.44;5114708;28;1109;-49
2021/03/02 12:21:41;;;;;;;;;;;;;;;20.14;33.84;102357.25;5116997;28;802;-55
2021/03/02 12:24:07;;;;;;;;;;;;;;;19.73;34.87;102361.44;5116915;28;779;-47
2021/03/02 12:26:32;;;;;;;;;;;;;;;19.21;35.66;102359.88;5121596;28;878;-47
2021/03/02 12:28:58;;;;;;;;;;;;;;;20.12;34.21;102359.44;5137122;28;952;-45
2021/03/02 12:31:23;;;;;;;;;;;;;;;20.39;33.41;102355.03;5139874;27;783;-63
2021/03/02 12:33:49;;;;;;;;;;;;;;;20.09;33.99;102362.72;5139927;27;1012;-44
2021/03/02 12:36:14;;;;;;;;;;;;;;;19.80;34.47;102356.59;5140988;27;1913;-45
2021/03/02 12:38:40;;;;;;;;;;;;;;;19.47;35.54;102356.41;5139881;27;892;-44
2021/03/02 12:41:05;;;;;;;;;;;;;;;19.28;35.82;102350.34;5141342;27;823;-45
2021/03/02 12:43:31;;;;;;;;;;;;;;;19.68;34.96;102345.63;5135020;27;1097;-48
2021/03/02 12:45:56;;;;;;;;;;;;;;;20.44;33.39;102353.16;5120566;28;794;-47
2021/03/02 12:48:21;;;;;;;;;;;;;;;20.13;33.86;102351.97;5120744;28;946;-46
2021/03/02 12:50:47;;;;;;;;;;;;;;;20.06;34.02;102346.66;5118718;28;991;-45
2021/03/02 12:53:13;;;;;;;;;;;;;;;19.56;35.04;102353.19;5120491;28;779;-45